Time,TemperatureF,DewpointF,PressureIn,WindDirection,WindDirectionDegrees,WindSpeedMPH,WindSpeedGustMPH,Humidity,HourlyPrecipIn,Conditions,Clouds,dailyrainin,SoftwareType,DateUTC
2013-08-02 00:02:00,59.0,54.0,29.83,WNW,290,0.0,1.0,83,0.00,,,0.00,,2013-08-02 05:02:00,
2013-08-02 00:12:00,57.0,53.0,29.84,SW,215,0.0,1.0,85,0.00,,,0.00,,2013-08-02 05:12:00,
2013-08-02 00:22:00,58.0,54.0,29.83,West,276,0.0,2.0,85,0.00,,,0.00,,2013-08-02 05:22:00,
2013-08-02 00:32:00,58.0,54.0,29.83,West,276,0.0,2.0,85,0.00,,,0.00,,2013-08-02 05:32:00,
2013-08-02 00:43:00,56.0,52.0,29.84,WSW,256,0.0,1.0,86,0.00,,,0.00,,2013-08-02 05:43:00,
2013-08-02 00:53:00,56.0,52.0,29.84,West,273,1.0,3.0,86,0.00,,,0.00,,2013-08-02 05:53:00,
2013-08-02 01:02:00,56.0,52.0,29.84,West,273,1.0,3.0,86,0.00,,,0.00,,2013-08-02 06:02:00,
2013-08-02 01:12:00,55.0,52.0,29.83,West,273,0.0,0.0,88,0.00,,,0.00,,2013-08-02 06:12:00,
2013-08-02 01:22:00,54.0,51.0,29.83,WNW,288,0.0,2.0,91,0.00,,,0.00,,2013-08-02 06:22:00,
2013-08-02 01:33:00,54.0,51.0,29.83,WNW,288,0.0,2.0,91,0.00,,,0.00,,2013-08-02 06:33:00,
2013-08-02 01:43:00,55.0,52.0,29.84,West,271,0.0,1.0,88,0.00,,,0.00,,2013-08-02 06:43:00,
2013-08-02 01:52:00,55.0,52.0,29.84,West,263,0.0,1.0,89,0.00,,,0.00,,2013-08-02 06:52:00,
2013-08-02 02:02:00,55.0,52.0,29.84,West,263,0.0,1.0,89,0.00,,,0.00,,2013-08-02 07:02:00,
2013-08-02 02:12:00,54.0,51.0,29.85,West,274,0.0,1.0,89,0.00,,,0.00,,2013-08-02 07:12:00,
2013-08-02 02:22:00,54.0,51.0,29.83,NW,311,1.0,3.0,91,0.00,,,0.00,,2013-08-02 07:22:00,
2013-08-02 02:33:00,54.0,51.0,29.83,NW,311,1.0,3.0,91,0.00,,,0.00,,2013-08-02 07:33:00,
2013-08-02 02:44:00,55.0,52.0,29.84,WNW,295,1.0,2.0,90,0.00,,,0.00,,2013-08-02 07:44:00,
2013-08-02 02:53:00,54.0,51.0,29.84,West,266,0.0,2.0,89,0.00,,,0.00,,2013-08-02 07:53:00,
2013-08-02 03:02:00,54.0,51.0,29.84,West,266,0.0,2.0,89,0.00,,,0.00,,2013-08-02 08:02:00,
2013-08-02 03:12:00,51.0,48.0,29.85,WSW,238,0.0,1.0,91,0.00,,,0.00,,2013-08-02 08:12:00,
2013-08-02 03:22:00,51.0,49.0,29.85,West,274,0.0,1.0,93,0.00,,,0.00,,2013-08-02 08:22:00,
2013-08-02 03:33:00,51.0,49.0,29.85,West,274,0.0,1.0,93,0.00,,,0.00,,2013-08-02 08:33:00,
2013-08-02 03:43:00,51.0,49.0,29.84,West,266,0.0,1.0,93,0.00,,,0.00,,2013-08-02 08:43:00,
2013-08-02 03:53:00,51.0,49.0,29.85,West,263,0.0,2.0,93,0.00,,,0.00,,2013-08-02 08:53:00,
2013-08-02 04:02:00,51.0,49.0,29.85,West,263,0.0,2.0,93,0.00,,,0.00,,2013-08-02 09:02:00,
2013-08-02 04:12:00,52.0,50.0,29.85,WNW,284,0.0,2.0,93,0.00,,,0.00,,2013-08-02 09:12:00,
2013-08-02 04:33:00,52.0,50.0,29.85,West,276,0.0,3.0,92,0.00,,,0.00,,2013-08-02 09:33:00,
2013-08-02 04:43:00,52.0,50.0,29.85,WNW,300,1.0,4.0,92,0.00,,,0.00,,2013-08-02 09:43:00,
2013-08-02 05:03:00,52.0,49.0,29.86,West,280,1.0,3.0,91,0.00,,,0.00,,2013-08-02 10:03:00,
2013-08-02 05:12:00,52.0,49.0,29.86,West,267,0.0,2.0,90,0.00,,,0.00,,2013-08-02 10:12:00,
2013-08-02 05:33:00,50.0,47.0,29.86,SSW,210,1.0,3.0,90,0.00,,,0.00,,2013-08-02 10:33:00,
2013-08-02 05:43:00,48.0,46.0,29.87,SW,222,1.0,2.0,92,0.00,,,0.00,,2013-08-02 10:43:00,
2013-08-02 05:52:00,48.0,46.0,29.87,SW,222,1.0,2.0,92,0.00,,,0.00,,2013-08-02 10:52:00,
2013-08-02 06:02:00,47.0,45.0,29.88,SW,217,0.0,1.0,93,0.00,,,0.00,,2013-08-02 11:02:00,
2013-08-02 06:12:00,48.0,47.0,29.88,West,259,0.0,1.0,95,0.00,,,0.00,,2013-08-02 11:12:00,
2013-08-02 06:22:00,48.0,47.0,29.88,West,259,0.0,1.0,95,0.00,,,0.00,,2013-08-02 11:22:00,
2013-08-02 06:32:00,48.0,47.0,29.88,WSW,251,0.0,1.0,95,0.00,,,0.00,,2013-08-02 11:32:00,
2013-08-02 06:43:00,49.0,47.0,29.88,West,276,0.0,1.0,94,0.00,,,0.00,,2013-08-02 11:43:00,
2013-08-02 06:52:00,49.0,47.0,29.88,West,276,0.0,1.0,94,0.00,,,0.00,,2013-08-02 11:52:00,
2013-08-02 07:02:00,50.0,48.0,29.88,West,277,0.0,0.0,93,0.00,,,0.00,,2013-08-02 12:02:00,
2013-08-02 07:12:00,51.0,49.0,29.88,West,270,0.0,1.0,93,0.00,,,0.00,,2013-08-02 12:12:00,
2013-08-02 07:22:00,51.0,49.0,29.88,West,270,0.0,1.0,93,0.00,,,0.00,,2013-08-02 12:22:00,
2013-08-02 07:32:00,52.0,50.0,29.89,WNW,285,0.0,2.0,92,0.00,,,0.00,,2013-08-02 12:32:00,
2013-08-02 07:43:00,54.0,51.0,29.90,NW,313,0.0,2.0,90,0.00,,,0.00,,2013-08-02 12:43:00,
2013-08-02 07:52:00,54.0,51.0,29.90,NW,313,0.0,2.0,90,0.00,,,0.00,,2013-08-02 12:52:00,
2013-08-02 08:02:00,56.0,52.0,29.90,North,351,1.0,3.0,87,0.00,,,0.00,,2013-08-02 13:02:00,
2013-08-02 08:12:00,58.0,54.0,29.90,North,356,3.0,5.0,87,0.00,,,0.00,,2013-08-02 13:12:00,
2013-08-02 08:22:00,58.0,54.0,29.90,North,356,3.0,5.0,87,0.00,,,0.00,,2013-08-02 13:22:00,
2013-08-02 08:33:00,59.0,54.0,29.90,NNE,21,4.0,9.0,85,0.00,,,0.00,,2013-08-02 13:33:00,
2013-08-02 08:42:00,61.0,56.0,29.90,NNE,20,5.0,9.0,84,0.00,,,0.00,,2013-08-02 13:42:00,
2013-08-02 08:52:00,61.0,56.0,29.90,NNE,20,5.0,9.0,84,0.00,,,0.00,,2013-08-02 13:52:00,
2013-08-02 09:02:00,61.0,56.0,29.89,North,5,5.0,12.0,83,0.00,,,0.00,,2013-08-02 14:02:00,
2013-08-02 09:22:00,62.0,56.0,29.90,NNE,27,2.0,13.0,81,0.00,,,0.00,,2013-08-02 14:22:00,
2013-08-02 09:32:00,63.0,56.0,29.90,NE,41,3.0,10.0,78,0.00,,,0.00,,2013-08-02 14:32:00,
2013-08-02 09:43:00,64.0,56.0,29.91,NE,46,6.0,11.0,75,0.00,,,0.00,,2013-08-02 14:43:00,
2013-08-02 09:52:00,64.0,56.0,29.91,NE,46,6.0,11.0,75,0.00,,,0.00,,2013-08-02 14:52:00,
2013-08-02 10:03:00,65.0,56.0,29.91,NNW,342,4.0,7.0,72,0.00,,,0.00,,2013-08-02 15:03:00,
2013-08-02 10:12:00,66.0,56.0,29.93,NNE,23,3.0,7.0,70,0.00,,,0.00,,2013-08-02 15:12:00,
2013-08-02 10:22:00,66.0,56.0,29.93,NNE,23,3.0,7.0,70,0.00,,,0.00,,2013-08-02 15:22:00,
2013-08-02 10:32:00,67.0,56.0,29.93,NNE,29,5.0,9.0,67,0.00,,,0.00,,2013-08-02 15:32:00,
2013-08-02 10:43:00,67.0,56.0,29.93,NNE,18,5.0,9.0,67,0.00,,,0.00,,2013-08-02 15:43:00,
2013-08-02 10:52:00,67.0,56.0,29.93,NNE,18,5.0,9.0,67,0.00,,,0.00,,2013-08-02 15:52:00,
2013-08-02 11:02:00,68.0,56.0,29.93,NW,324,5.0,12.0,65,0.00,,,0.00,,2013-08-02 16:02:00,
2013-08-02 11:12:00,68.0,56.0,29.93,NE,36,3.0,8.0,66,0.00,,,0.00,,2013-08-02 16:12:00,
2013-08-02 11:22:00,68.0,56.0,29.93,NE,36,3.0,8.0,66,0.00,,,0.00,,2013-08-02 16:22:00,
2013-08-02 11:32:00,69.0,55.0,29.93,NNE,28,5.0,11.0,62,0.00,,,0.00,,2013-08-02 16:32:00,
2013-08-02 11:43:00,69.0,55.0,29.92,NNE,13,4.0,9.0,61,0.00,,,0.00,,2013-08-02 16:43:00,
2013-08-02 11:52:00,69.0,55.0,29.92,NNE,13,4.0,9.0,61,0.00,,,0.00,,2013-08-02 16:52:00,
2013-08-02 12:02:00,69.0,56.0,29.92,ENE,68,3.0,11.0,64,0.00,,,0.00,,2013-08-02 17:02:00,
2013-08-02 12:12:00,70.0,54.0,29.93,NNW,344,5.0,9.0,57,0.00,,,0.00,,2013-08-02 17:12:00,
2013-08-02 12:22:00,70.0,54.0,29.93,NNW,344,5.0,9.0,57,0.00,,,0.00,,2013-08-02 17:22:00,
2013-08-02 12:35:00,70.0,55.0,29.93,North,9,4.0,12.0,58,0.00,,,0.00,,2013-08-02 17:35:00,
2013-08-02 12:43:00,70.0,54.0,29.93,ENE,72,3.0,16.0,57,0.00,,,0.00,,2013-08-02 17:43:00,
2013-08-02 12:52:00,70.0,54.0,29.93,ENE,72,3.0,16.0,57,0.00,,,0.00,,2013-08-02 17:52:00,
2013-08-02 13:02:00,70.0,54.0,29.92,NNE,18,2.0,13.0,56,0.00,,,0.00,,2013-08-02 18:02:00,
2013-08-02 13:12:00,71.0,54.0,29.92,NE,44,3.0,12.0,55,0.00,,,0.00,,2013-08-02 18:12:00,
2013-08-02 13:22:00,71.0,54.0,29.92,NE,44,3.0,12.0,55,0.00,,,0.00,,2013-08-02 18:22:00,
2013-08-02 13:32:00,70.0,52.0,29.92,NE,51,5.0,9.0,53,0.00,,,0.00,,2013-08-02 18:32:00,
2013-08-02 13:43:00,71.0,50.0,29.92,NNW,337,4.0,11.0,48,0.00,,,0.00,,2013-08-02 18:43:00,
2013-08-02 13:52:00,71.0,50.0,29.92,NNW,337,4.0,11.0,48,0.00,,,0.00,,2013-08-02 18:52:00,
2013-08-02 14:02:00,72.0,50.0,29.93,NNW,342,6.0,12.0,46,0.00,,,0.00,,2013-08-02 19:02:00,
2013-08-02 14:12:00,73.0,50.0,29.93,WNW,290,5.0,11.0,45,0.00,,,0.00,,2013-08-02 19:12:00,
2013-08-02 14:22:00,73.0,50.0,29.93,WNW,290,5.0,11.0,45,0.00,,,0.00,,2013-08-02 19:22:00,
2013-08-02 14:32:00,73.0,50.0,29.93,NE,41,5.0,9.0,45,0.00,,,0.00,,2013-08-02 19:32:00,
2013-08-02 14:43:00,73.0,50.0,29.93,NNW,347,6.0,14.0,44,0.00,,,0.00,,2013-08-02 19:43:00,
2013-08-02 14:52:00,73.0,50.0,29.93,NNW,347,6.0,14.0,44,0.00,,,0.00,,2013-08-02 19:52:00,
2013-08-02 15:02:00,73.0,50.0,29.94,NNW,343,7.0,15.0,44,0.00,,,0.00,,2013-08-02 20:02:00,
2013-08-02 15:12:00,73.0,50.0,29.94,NNE,30,6.0,15.0,45,0.00,,,0.00,,2013-08-02 20:12:00,
2013-08-02 15:22:00,73.0,50.0,29.94,NNE,30,6.0,15.0,45,0.00,,,0.00,,2013-08-02 20:22:00,
2013-08-02 15:32:00,73.0,50.0,29.94,NNE,30,6.0,15.0,45,0.00,,,0.00,,2013-08-02 20:32:00,
2013-08-02 15:43:00,74.0,52.0,29.94,North,5,8.0,12.0,47,0.00,,,0.00,,2013-08-02 20:43:00,
2013-08-02 15:52:00,74.0,52.0,29.94,North,5,8.0,12.0,47,0.00,,,0.00,,2013-08-02 20:52:00,
2013-08-02 16:02:00,74.0,52.0,29.94,NNW,341,5.0,11.0,47,0.00,,,0.00,,2013-08-02 21:02:00,
2013-08-02 16:12:00,74.0,52.0,29.93,NW,326,6.0,11.0,47,0.00,,,0.00,,2013-08-02 21:12:00,
2013-08-02 16:22:00,74.0,52.0,29.93,NW,326,6.0,11.0,47,0.00,,,0.00,,2013-08-02 21:22:00,
2013-08-02 16:32:00,73.0,52.0,29.93,NNE,25,4.0,9.0,48,0.00,,,0.00,,2013-08-02 21:32:00,
2013-08-02 16:43:00,74.0,53.0,29.93,North,353,5.0,11.0,48,0.00,,,0.00,,2013-08-02 21:43:00,
2013-08-02 16:52:00,74.0,53.0,29.93,North,353,5.0,11.0,48,0.00,,,0.00,,2013-08-02 21:52:00,
2013-08-02 17:02:00,73.0,50.0,29.93,NNW,340,6.0,10.0,45,0.00,,,0.00,,2013-08-02 22:02:00,
2013-08-02 17:12:00,72.0,50.0,29.93,North,351,2.0,8.0,46,0.00,,,0.00,,2013-08-02 22:12:00,
2013-08-02 17:22:00,72.0,50.0,29.93,North,351,2.0,8.0,46,0.00,,,0.00,,2013-08-02 22:22:00,
2013-08-02 17:32:00,72.0,51.0,29.93,NNW,330,5.0,11.0,47,0.00,,,0.00,,2013-08-02 22:32:00,
2013-08-02 17:43:00,74.0,52.0,29.93,North,351,7.0,12.0,46,0.00,,,0.00,,2013-08-02 22:43:00,
2013-08-02 17:52:00,74.0,52.0,29.93,North,351,7.0,12.0,46,0.00,,,0.00,,2013-08-02 22:52:00,
2013-08-02 18:02:00,74.0,51.0,29.93,NE,56,6.0,9.0,44,0.00,,,0.00,,2013-08-02 23:02:00,
2013-08-02 18:12:00,73.0,52.0,29.94,NNE,18,6.0,12.0,47,0.00,,,0.00,,2013-08-02 23:12:00,
2013-08-02 18:22:00,73.0,52.0,29.94,NNE,18,6.0,12.0,47,0.00,,,0.00,,2013-08-02 23:22:00,
2013-08-02 18:32:00,73.0,52.0,29.94,NNE,18,6.0,12.0,47,0.00,,,0.00,,2013-08-02 23:32:00,
2013-08-02 18:43:00,74.0,52.0,29.94,NNW,344,4.0,10.0,46,0.00,,,0.00,,2013-08-02 23:43:00,
2013-08-02 18:53:00,74.0,52.0,29.94,NNW,344,4.0,10.0,46,0.00,,,0.00,,2013-08-02 23:53:00,
2013-08-02 19:02:00,72.0,49.0,29.94,NNW,330,3.0,10.0,44,0.00,,,0.00,,2013-08-03 00:02:00,
2013-08-02 19:12:00,73.0,51.0,29.94,North,356,4.0,7.0,46,0.00,,,0.00,,2013-08-03 00:12:00,
2013-08-02 19:22:00,73.0,51.0,29.94,North,356,4.0,7.0,46,0.00,,,0.00,,2013-08-03 00:22:00,
2013-08-02 19:32:00,73.0,51.0,29.94,North,9,4.0,12.0,46,0.00,,,0.00,,2013-08-03 00:32:00,
2013-08-02 19:43:00,72.0,52.0,29.94,North,354,5.0,9.0,49,0.00,,,0.00,,2013-08-03 00:43:00,
2013-08-02 19:52:00,72.0,52.0,29.94,North,354,5.0,9.0,49,0.00,,,0.00,,2013-08-03 00:52:00,
2013-08-02 20:02:00,70.0,52.0,29.95,NNW,341,4.0,10.0,52,0.00,,,0.00,,2013-08-03 01:02:00,
2013-08-02 20:12:00,70.0,52.0,29.95,North,358,3.0,7.0,53,0.00,,,0.00,,2013-08-03 01:12:00,
2013-08-02 20:22:00,70.0,52.0,29.95,North,358,3.0,7.0,53,0.00,,,0.00,,2013-08-03 01:22:00,
2013-08-02 20:32:00,69.0,53.0,29.96,NNW,347,3.0,6.0,57,0.00,,,0.00,,2013-08-03 01:32:00,
2013-08-02 20:42:00,68.0,54.0,29.96,NNW,341,2.0,5.0,61,0.00,,,0.00,,2013-08-03 01:42:00,
2013-08-02 20:53:00,68.0,54.0,29.96,NNW,341,2.0,5.0,61,0.00,,,0.00,,2013-08-03 01:53:00,
2013-08-02 21:02:00,67.0,54.0,29.97,NNW,330,1.0,3.0,63,0.00,,,0.00,,2013-08-03 02:02:00,
2013-08-02 21:22:00,65.0,53.0,29.98,NW,306,1.0,2.0,66,0.00,,,0.00,,2013-08-03 02:22:00,
2013-08-02 21:32:00,65.0,53.0,29.98,NNE,16,1.0,2.0,66,0.00,,,0.00,,2013-08-03 02:32:00,
2013-08-02 21:43:00,63.0,53.0,29.99,North,356,0.0,2.0,70,0.00,,,0.00,,2013-08-03 02:43:00,
2013-08-02 21:52:00,63.0,53.0,29.99,North,356,0.0,2.0,70,0.00,,,0.00,,2013-08-03 02:52:00,
2013-08-02 22:02:00,62.0,52.0,29.99,North,356,0.0,0.0,71,0.00,,,0.00,,2013-08-03 03:02:00,
2013-08-02 22:12:00,61.0,53.0,30.00,North,356,0.0,0.0,74,0.00,,,0.00,,2013-08-03 03:12:00,
2013-08-02 22:22:00,61.0,53.0,30.00,North,356,0.0,0.0,74,0.00,,,0.00,,2013-08-03 03:22:00,
2013-08-02 22:32:00,61.0,53.0,30.01,West,276,1.0,2.0,75,0.00,,,0.00,,2013-08-03 03:32:00,
2013-08-02 22:43:00,59.0,52.0,30.01,WNW,288,1.0,2.0,77,0.00,,,0.00,,2013-08-03 03:43:00,
2013-08-02 22:53:00,59.0,52.0,30.01,WNW,288,1.0,2.0,77,0.00,,,0.00,,2013-08-03 03:53:00,
2013-08-02 23:02:00,60.0,52.0,30.01,NNW,327,1.0,4.0,75,0.00,,,0.00,,2013-08-03 04:02:00,
2013-08-02 23:12:00,61.0,52.0,30.01,NW,316,0.0,4.0,73,0.00,,,0.00,,2013-08-03 04:12:00,
2013-08-02 23:22:00,61.0,52.0,30.01,NW,316,0.0,4.0,73,0.00,,,0.00,,2013-08-03 04:22:00,
2013-08-02 23:32:00,60.0,52.0,30.01,North,8,1.0,5.0,74,0.00,,,0.00,,2013-08-03 04:32:00,
2013-08-02 23:43:00,59.0,51.0,30.01,NNE,17,2.0,4.0,76,0.00,,,0.00,,2013-08-03 04:43:00,
2013-08-02 23:53:00,59.0,51.0,30.01,NNE,17,2.0,4.0,76,0.00,,,0.00,,2013-08-03 04:53:00,